Time;durP1;ratioP1;P1;durP2;ratioP2;P2;SDS_P1;SDS_P2;PMS_P1;PMS_P2;Temp;Humidity;BMP_temperature;BMP_pressure;BME280_temperature;BME280_humidity;BME280_pressure;Samples;Min_cycle;Max_cycle;Signal;HPM_P1;HPM_P2
2021/08/30 00:01:09;;;;;;;0.30;0.20;;;;;;;16.32;100.00;100226.88;5053684;28;20474;-56
2021/08/30 00:03:37;;;;;;;0.30;0.20;;;;;;;16.34;100.00;100216.94;5054180;28;20533;-56
2021/08/30 00:06:05;;;;;;;0.57;0.57;;;;;;;16.39;100.00;100222.91;5053597;28;21061;-56
2021/08/30 00:08:32;;;;;;;0.50;0.40;;;;;;;16.40;100.00;100217.44;5053645;28;20508;-57
2021/08/30 00:10:59;;;;;;;0.30;0.20;;;;;;;16.34;100.00;100209.75;5053492;28;20482;-56
2021/08/30 00:13:26;;;;;;;0.30;0.20;;;;;;;16.31;100.00;100217.97;5053670;28;20450;-57
2021/08/30 00:15:56;;;;;;;0.30;0.20;;;;;;;16.32;100.00;100224.19;5053334;28;20496;-57
2021/08/30 00:18:24;;;;;;;0.30;0.20;;;;;;;16.31;100.00;100226.00;5053404;28;20442;-57
2021/08/30 00:20:52;;;;;;;0.40;0.30;;;;;;;16.34;100.00;100224.97;5039884;28;20532;-57
2021/08/30 00:23:19;;;;;;;0.30;0.20;;;;;;;16.32;100.00;100219.69;5034816;28;20472;-56
2021/08/30 00:25:46;;;;;;;2.67;0.83;;;;;;;16.37;100.00;100212.25;5052498;28;20461;-57
2021/08/30 00:28:13;;;;;;;0.30;0.30;;;;;;;16.42;100.00;100214.69;5034597;28;20451;-57
2021/08/30 00:30:40;;;;;;;0.40;0.40;;;;;;;16.39;100.00;100220.22;5052415;28;20470;-56
2021/08/30 00:33:07;;;;;;;0.30;0.20;;;;;;;16.40;100.00;100222.81;5052286;28;20844;-57
2021/08/30 00:35:34;;;;;;;0.30;0.20;;;;;;;16.44;100.00;100215.47;5052095;28;20504;-57
2021/08/30 00:38:01;;;;;;;0.30;0.20;;;;;;;16.46;100.00;100224.31;5052500;28;20860;-57
2021/08/30 00:40:28;;;;;;;0.30;0.20;;;;;;;16.48;100.00;100217.91;5052264;28;20450;-57
2021/08/30 00:42:55;;;;;;;2.93;2.43;;;;;;;16.49;100.00;100213.41;5052208;28;20478;-57
2021/08/30 00:45:22;;;;;;;0.40;0.30;;;;;;;16.46;100.00;100216.28;5052126;28;20490;-56
2021/08/30 00:47:52;;;;;;;0.47;0.47;;;;;;;16.32;100.00;100214.31;5052142;28;20523;-57
2021/08/30 00:50:19;;;;;;;0.40;0.30;;;;;;;16.28;100.00;100199.31;5034765;28;20443;-57
2021/08/30 00:52:47;;;;;;;0.30;0.20;;;;;;;16.22;100.00;100205.91;5051965;28;20454;-56
2021/08/30 00:55:15;;;;;;;0.30;0.20;;;;;;;16.21;100.00;100205.97;5052038;28;20447;-57
2021/08/30 00:57:42;;;;;;;0.50;0.50;;;;;;;16.21;100.00;100203.28;5052031;28;20454;-57
2021/08/30 01:00:11;;;;;;;0.30;0.20;;;;;;;16.33;100.00;100204.47;5051989;28;20451;-57
2021/08/30 01:02:40;;;;;;;0.40;0.20;;;;;;;16.30;100.00;100206.34;5051451;28;20483;-57
2021/08/30 01:05:08;;;;;;;0.40;0.30;;;;;;;16.46;100.00;100201.03;5034348;28;20486;-57
2021/08/30 01:07:41;;;;;;;0.40;0.20;;;;;;;16.47;100.00;100205.44;5051526;28;20450;-57
2021/08/30 01:10:19;;;;;;;0.40;0.20;;;;;;;16.56;100.00;100199.56;5051453;28;20451;-57
2021/08/30 01:13:16;;;;;;;0.40;0.20;;;;;;;16.44;100.00;100199.34;5051630;28;20447;-56
2021/08/30 01:15:44;;;;;;;0.30;0.20;;;;;;;16.43;100.00;100195.81;5043472;28;20479;-56
2021/08/30 01:18:18;;;;;;;1.00;1.00;;;;;;;16.44;100.00;100197.53;5051698;28;20987;-58
2021/08/30 01:20:46;;;;;;;0.70;0.40;;;;;;;16.45;100.00;100193.94;5002613;23;1311118;31
2021/08/30 01:23:15;;;;;;;0.60;0.60;;;;;;;16.45;100.00;100201.13;4985018;28;20226;-52
2021/08/30 01:25:42;;;;;;;0.50;0.50;;;;;;;16.54;100.00;100209.50;4963440;28;20489;-52
2021/08/30 01:28:09;;;;;;;0.30;0.20;;;;;;;16.54;100.00;100198.78;4979938;28;20490;-52
2021/08/30 01:30:37;;;;;;;0.30;0.20;;;;;;;16.46;100.00;100203.72;4985879;28;20796;-52
2021/08/30 01:33:05;;;;;;;0.30;0.20;;;;;;;16.49;100.00;100210.72;4968010;28;20485;-52
2021/08/30 01:35:34;;;;;;;0.40;0.20;;;;;;;16.44;100.00;100208.28;4973592;28;20512;-52
2021/08/30 01:38:06;;;;;;;0.30;0.20;;;;;;;16.46;100.00;100211.78;4973361;28;20513;-52
2021/08/30 01:40:35;;;;;;;0.40;0.20;;;;;;;16.43;100.00;100206.53;4973537;28;20868;-52
2021/08/30 01:43:03;;;;;;;0.50;0.50;;;;;;;16.31;100.00;100215.28;4973258;28;20510;-52
2021/08/30 01:45:32;;;;;;;0.30;0.20;;;;;;;16.39;100.00;100207.66;4973483;28;20842;-52
2021/08/30 01:48:03;;;;;;;0.50;0.50;;;;;;;16.42;100.00;100203.94;4973413;28;20478;-52
2021/08/30 01:50:31;;;;;;;0.33;0.20;;;;;;;16.41;100.00;100200.41;4973363;28;20451;-52
2021/08/30 01:53:01;;;;;;;0.30;0.20;;;;;;;16.48;100.00;100206.31;4973560;28;20502;-52
2021/08/30 01:55:38;;;;;;;0.40;0.20;;;;;;;16.46;100.00;100213.59;4962308;28;20471;-52
2021/08/30 02:00:47;;;;;;;0.73;0.70;;;;;;;16.50;100.00;100207.09;4973761;28;20454;-53
2021/08/30 02:03:18;;;;;;;0.40;0.20;;;;;;;16.48;100.00;100200.94;4963235;28;20457;-52
2021/08/30 02:05:48;;;;;;;0.53;0.53;;;;;;;16.38;100.00;100207.75;4973409;28;21113;-53
2021/08/30 02:08:16;;;;;;;0.40;0.40;;;;;;;16.36;100.00;100210.53;4973472;28;20876;-52
2021/08/30 02:10:44;;;;;;;0.30;0.20;;;;;;;16.31;100.00;100209.91;4973103;28;20875;-52
2021/08/30 02:13:13;;;;;;;0.80;0.80;;;;;;;16.37;100.00;100214.06;4967084;28;20464;-53
2021/08/30 02:15:41;;;;;;;0.30;0.20;;;;;;;16.43;100.00;100213.72;4973031;28;21006;-53
2021/08/30 02:18:25;;;;;;;0.30;0.30;;;;;;;16.50;100.00;100212.47;4973465;28;20549;-53
2021/08/30 02:21:16;;;;;;;0.30;0.20;;;;;;;16.48;100.00;100214.38;4972997;28;20509;-53
2021/08/30 02:24:15;;;;;;;0.30;0.20;;;;;;;16.49;100.00;100211.59;4976724;28;20925;-53
2021/08/30 02:26:47;;;;;;;0.30;0.20;;;;;;;16.50;100.00;100212.47;4976792;28;20630;-52
2021/08/30 02:29:20;;;;;;;0.40;0.30;;;;;;;16.48;100.00;100212.53;4977012;28;20424;-53
2021/08/30 02:31:50;;;;;;;0.30;0.20;;;;;;;16.42;100.00;100210.19;4976859;28;20517;-52
2021/08/30 02:34:21;;;;;;;0.40;0.30;;;;;;;16.49;100.00;100211.59;4976754;28;20454;-52
2021/08/30 02:36:50;;;;;;;0.30;0.20;;;;;;;16.46;100.00;100210.91;4976722;28;20482;-52
2021/08/30 02:39:18;;;;;;;0.40;0.30;;;;;;;16.49;100.00;100216.09;4976600;28;20952;-52
2021/08/30 02:41:47;;;;;;;0.40;0.30;;;;;;;16.48;100.00;100217.06;4976363;28;20506;-52
2021/08/30 02:44:15;;;;;;;0.60;0.60;;;;;;;16.48;100.00;100217.06;4976593;28;20483;-52
2021/08/30 02:46:45;;;;;;;0.30;0.20;;;;;;;16.55;100.00;100216.63;4976220;28;20529;-53
2021/08/30 02:49:14;;;;;;;0.33;0.20;;;;;;;16.54;100.00;100217.56;4976654;28;20523;-52
2021/08/30 02:51:43;;;;;;;0.40;0.30;;;;;;;16.56;100.00;100217.47;4976294;28;20510;-52
2021/08/30 02:54:11;;;;;;;0.37;0.30;;;;;;;16.43;100.00;100221.78;4962025;28;20425;-52
2021/08/30 02:56:41;;;;;;;0.30;0.20;;;;;;;16.38;100.00;100219.34;4964705;28;20453;-52
2021/08/30 02:59:11;;;;;;;0.30;0.20;;;;;;;16.50;100.00;100217.81;4975963;28;20425;-53
2021/08/30 03:01:39;;;;;;;0.40;0.20;;;;;;;16.41;100.00;100219.19;4976374;28;20506;-52
2021/08/30 03:04:06;;;;;;;0.30;0.20;;;;;;;16.40;100.00;100213.91;4976208;28;20477;-52
2021/08/30 03:06:34;;;;;;;0.30;0.20;;;;;;;16.43;100.00;100211.91;4967211;28;20499;-52
2021/08/30 03:09:01;;;;;;;0.30;0.20;;;;;;;16.45;100.00;100212.72;4972322;28;20453;-52
2021/08/30 03:11:29;;;;;;;0.40;0.20;;;;;;;16.38;100.00;100202.38;4973206;28;20522;-52
2021/08/30 03:13:57;;;;;;;0.30;0.20;;;;;;;16.40;100.00;100216.59;4972463;28;20429;-52
2021/08/30 03:16:27;;;;;;;2.80;2.60;;;;;;;16.40;100.00;100208.53;4975957;28;20447;-52
2021/08/30 03:18:57;;;;;;;0.50;0.50;;;;;;;16.39;100.00;100204.97;4976070;28;20490;-52
2021/08/30 03:21:26;;;;;;;0.30;0.20;;;;;;;16.39;100.00;100199.63;4974752;28;21022;-52
2021/08/30 03:23:54;;;;;;;1.03;0.60;;;;;;;16.40;100.00;100190.63;4975972;28;20486;-52
2021/08/30 03:26:24;;;;;;;0.30;0.20;;;;;;;16.42;100.00;100191.41;4975581;28;20526;-53
2021/08/30 03:28:52;;;;;;;0.30;0.20;;;;;;;16.47;100.00;100194.72;4975666;28;20485;-52
2021/08/30 03:31:20;;;;;;;0.30;0.30;;;;;;;16.52;100.00;100189.09;4975567;28;20561;-52
2021/08/30 03:33:49;;;;;;;0.30;0.20;;;;;;;16.52;100.00;100200.69;4975438;28;20462;-52
2021/08/30 03:36:16;;;;;;;0.73;0.73;;;;;;;16.44;100.00;100200.22;4975663;28;20486;-53
2021/08/30 03:38:44;;;;;;;0.30;0.20;;;;;;;16.48;100.00;100207.19;4968964;28;20459;-52
2021/08/30 03:41:14;;;;;;;0.30;0.20;;;;;;;16.49;100.00;100203.53;4969587;28;20893;-52
2021/08/30 03:43:42;;;;;;;1.23;0.50;;;;;;;16.53;100.00;100204.25;4975839;28;20462;-52
2021/08/30 03:46:12;;;;;;;0.30;0.20;;;;;;;16.66;100.00;100213.34;4962422;28;20510;-52
2021/08/30 03:48:39;;;;;;;0.40;0.20;;;;;;;16.68;100.00;100216.84;4975376;28;20960;-52
2021/08/30 03:51:08;;;;;;;0.40;0.30;;;;;;;16.68;100.00;100214.16;4975158;28;20506;-53
2021/08/30 03:53:36;;;;;;;0.30;0.20;;;;;;;16.71;100.00;100216.66;4975583;28;20429;-52
2021/08/30 03:56:05;;;;;;;0.30;0.30;;;;;;;16.61;100.00;100215.44;4962451;28;20470;-52
2021/08/30 03:58:33;;;;;;;0.40;0.20;;;;;;;16.53;100.00;100223.03;4976404;28;20457;-52
2021/08/30 04:01:04;;;;;;;0.30;0.20;;;;;;;16.44;100.00;100210.09;4974847;28;20514;-52
2021/08/30 04:03:38;;;;;;;0.30;0.30;;;;;;;16.40;100.00;100219.25;4974910;28;20450;-52
2021/08/30 04:06:08;;;;;;;0.97;0.97;;;;;;;16.34;100.00;100212.44;4974986;28;20640;-52
2021/08/30 04:08:35;;;;;;;0.40;0.40;;;;;;;16.40;100.00;100208.53;4962083;28;20820;-52
2021/08/30 04:11:03;;;;;;;0.53;0.53;;;;;;;16.39;100.00;100209.47;4974729;28;20506;-52
2021/08/30 04:13:31;;;;;;;0.33;0.20;;;;;;;16.42;100.00;100215.53;4968891;28;20585;-52
2021/08/30 04:15:58;;;;;;;0.30;0.20;;;;;;;16.38;100.00;100218.47;4974636;28;20947;-52
2021/08/30 04:18:25;;;;;;;0.73;0.73;;;;;;;16.38;100.00;100230.06;4974529;28;20460;-52
2021/08/30 04:20:52;;;;;;;1.23;1.23;;;;;;;16.42;100.00;100228.09;4974414;28;20454;-53
2021/08/30 04:23:19;;;;;;;2.60;1.97;;;;;;;16.40;100.00;100222.81;4974459;28;20421;-53
2021/08/30 04:25:46;;;;;;;0.30;0.20;;;;;;;16.37;100.00;100228.34;4974493;28;20491;-53
2021/08/30 04:28:12;;;;;;;0.30;0.20;;;;;;;16.38;100.00;100226.53;4974534;28;20453;-52
2021/08/30 04:30:39;;;;;;;0.40;0.30;;;;;;;16.39;100.00;100221.09;4974593;28;20458;-53
2021/08/30 04:33:13;;;;;;;0.30;0.30;;;;;;;16.39;100.00;100233.63;4974752;28;20481;-52
2021/08/30 04:35:40;;;;;;;0.33;0.20;;;;;;;16.43;100.00;100238.75;4974410;28;20451;-52
2021/08/30 04:38:08;;;;;;;0.30;0.20;;;;;;;16.62;100.00;100233.28;4974292;28;20911;-52
2021/08/30 04:40:37;;;;;;;0.50;0.50;;;;;;;16.62;100.00;100232.41;4974756;28;20485;-52
2021/08/30 04:43:04;;;;;;;1.90;1.03;;;;;;;16.83;100.00;100232.09;4960094;28;20484;-53
2021/08/30 04:45:31;;;;;;;0.40;0.40;;;;;;;16.94;100.00;100239.56;4965193;28;20517;-52
2021/08/30 04:47:58;;;;;;;0.67;0.67;;;;;;;16.91;100.00;100241.56;4961852;28;20824;-52
2021/08/30 04:50:25;;;;;;;0.30;0.20;;;;;;;17.25;100.00;100233.34;4974244;28;20474;-52
2021/08/30 04:52:52;;;;;;;3.40;2.43;;;;;;;16.97;100.00;100235.84;4974273;28;20533;-51
2021/08/30 04:55:19;;;;;;;0.40;0.20;;;;;;;17.07;100.00;100243.31;4963770;28;20448;-52
2021/08/30 04:57:46;;;;;;;0.30;0.20;;;;;;;17.12;100.00;100238.53;4971427;28;20505;-53
2021/08/30 05:00:13;;;;;;;0.40;0.20;;;;;;;17.25;100.00;100243.22;4974230;28;20517;-52
2021/08/30 05:02:40;;;;;;;3.40;0.60;;;;;;;17.13;100.00;100242.97;4973596;28;20512;-53
2021/08/30 05:05:08;;;;;;;0.60;0.60;;;;;;;17.09;100.00;100244.09;4973811;28;20457;-53
2021/08/30 05:07:34;;;;;;;1.63;1.53;;;;;;;17.05;100.00;100247.03;4973654;28;20482;-52
2021/08/30 05:10:02;;;;;;;0.93;0.93;;;;;;;17.21;100.00;100239.84;4973837;28;20489;-53
2021/08/30 05:12:29;;;;;;;0.30;0.20;;;;;;;17.28;100.00;100245.75;4966931;28;20474;-52
2021/08/30 05:14:56;;;;;;;0.50;0.50;;;;;;;17.10;100.00;100244.94;4973825;28;20481;-52
2021/08/30 05:17:23;;;;;;;7.97;1.80;;;;;;;17.24;100.00;100252.22;4973653;28;20478;-53
2021/08/30 05:19:49;;;;;;;2.77;1.53;;;;;;;17.20;100.00;100254.22;4973878;28;20950;-52
2021/08/30 05:22:16;;;;;;;0.50;0.50;;;;;;;17.24;100.00;100254.91;4973382;28;20513;-52
2021/08/30 05:24:43;;;;;;;0.50;0.40;;;;;;;17.28;100.00;100251.13;4974134;28;20454;-52
2021/08/30 05:27:10;;;;;;;0.40;0.20;;;;;;;17.19;100.00;100252.50;4973806;28;20982;-52
2021/08/30 05:29:37;;;;;;;0.40;0.20;;;;;;;17.39;100.00;100260.28;4973569;28;21010;-53
2021/08/30 05:32:08;;;;;;;0.30;0.20;;;;;;;17.43;100.00;100261.84;4946502;28;20453;-52
2021/08/30 05:34:35;;;;;;;1.40;1.37;;;;;;;17.49;100.00;100257.94;4974048;28;20450;-53
2021/08/30 05:37:02;;;;;;;0.40;0.30;;;;;;;17.30;100.00;100265.34;4973480;28;20493;-52
2021/08/30 05:39:29;;;;;;;0.30;0.30;;;;;;;17.38;100.00;100269.31;4973233;28;20862;-53
2021/08/30 05:41:56;;;;;;;0.30;0.20;;;;;;;17.30;100.00;100274.25;4966704;28;20893;-52
2021/08/30 05:44:23;;;;;;;0.30;0.20;;;;;;;17.28;100.00;100275.31;4981723;28;20449;-53
2021/08/30 05:46:51;;;;;;;0.40;0.40;;;;;;;17.44;100.00;100278.84;4961286;28;21049;-52
2021/08/30 05:49:19;;;;;;;0.60;0.57;;;;;;;17.43;100.00;100277.13;4973277;28;20461;-51
2021/08/30 05:51:47;;;;;;;0.40;0.37;;;;;;;17.40;100.00;100277.28;4973319;28;20474;-52
2021/08/30 05:54:14;;;;;;;0.33;0.20;;;;;;;17.33;100.00;100284.81;4971377;28;20454;-52
2021/08/30 05:56:41;;;;;;;0.40;0.20;;;;;;;17.38;100.00;100280.03;4963449;28;20533;-53
2021/08/30 05:59:08;;;;;;;0.40;0.30;;;;;;;17.45;100.00;100277.91;4977189;28;20509;-52
2021/08/30 06:01:36;;;;;;;0.40;0.40;;;;;;;17.36;100.00;100283.78;4977171;28;20517;-52
2021/08/30 06:04:04;;;;;;;0.47;0.47;;;;;;;17.31;100.00;100281.38;4977143;28;20544;-52
2021/08/30 06:06:31;;;;;;;0.47;0.40;;;;;;;17.48;100.00;100281.25;4977419;28;20529;-52
2021/08/30 06:08:58;;;;;;;0.40;0.40;;;;;;;17.46;100.00;100275.13;4976868;28;20496;-52
2021/08/30 06:11:25;;;;;;;1.90;1.80;;;;;;;17.45;100.00;100283.28;4974405;28;20521;-52
2021/08/30 06:13:52;;;;;;;1.40;1.40;;;;;;;17.47;100.00;100278.66;4973712;28;20875;-53
2021/08/30 06:16:23;;;;;;;0.30;0.20;;;;;;;17.46;100.00;100276.94;4977224;28;20448;-52
2021/08/30 06:18:50;;;;;;;0.30;0.20;;;;;;;17.40;100.00;100272.75;4963973;28;20454;-52
2021/08/30 06:21:17;;;;;;;0.50;0.40;;;;;;;17.28;100.00;100276.16;4976988;28;20482;-53
2021/08/30 06:23:44;;;;;;;0.30;0.20;;;;;;;17.39;100.00;100281.78;4976991;28;20478;-52
2021/08/30 06:26:11;;;;;;;0.40;0.20;;;;;;;17.45;100.00;100280.59;4976684;28;20916;-53
2021/08/30 06:28:37;;;;;;;0.40;0.20;;;;;;;17.45;100.00;100281.44;4976657;28;20956;-51
2021/08/30 06:31:04;;;;;;;0.37;0.20;;;;;;;17.37;100.00;100270.25;4976673;28;20501;-53
2021/08/30 06:33:31;;;;;;;7.00;0.87;;;;;;;17.39;100.00;100268.34;4976506;28;20450;-52
2021/08/30 06:35:58;;;;;;;0.97;0.93;;;;;;;17.40;100.00;100288.88;4976554;28;20454;-52
2021/08/30 06:38:25;;;;;;;0.73;0.73;;;;;;;17.53;100.00;100288.19;4976340;28;20458;-52
2021/08/30 06:40:52;;;;;;;0.43;0.43;;;;;;;17.46;100.00;100296.63;4976705;28;20501;-52
2021/08/30 06:43:19;;;;;;;0.40;0.20;;;;;;;17.51;100.00;100293.66;4964084;28;20842;-52
2021/08/30 06:45:46;;;;;;;0.40;0.20;;;;;;;17.52;100.00;100294.53;4976527;28;20451;-52
2021/08/30 06:48:13;;;;;;;0.40;0.30;;;;;;;17.39;100.00;100295.22;4976028;28;20454;-52
2021/08/30 06:50:42;;;;;;;0.40;0.30;;;;;;;17.40;100.00;100296.94;4975806;28;20825;-53
2021/08/30 06:53:11;;;;;;;0.40;0.30;;;;;;;17.68;100.00;100293.59;4976092;28;20454;-53
2021/08/30 06:55:38;;;;;;;0.70;0.70;;;;;;;17.56;100.00;100288.03;4963258;28;20976;-53
2021/08/30 06:58:06;;;;;;;5.40;0.87;;;;;;;17.72;100.00;100289.78;4951080;28;20496;-52
2021/08/30 07:00:32;;;;;;;0.30;0.20;;;;;;;17.62;100.00;100295.72;4975754;28;20486;-52
2021/08/30 07:03:00;;;;;;;0.30;0.20;;;;;;;17.73;100.00;100296.03;4975259;28;20486;-52
2021/08/30 07:05:28;;;;;;;1.80;1.70;;;;;;;17.74;100.00;100298.63;4976059;28;20508;-53
2021/08/30 07:07:54;;;;;;;0.40;0.40;;;;;;;17.81;100.00;100291.03;4975771;28;20498;-52
2021/08/30 07:10:22;;;;;;;0.40;0.20;;;;;;;17.88;100.00;100294.25;4975998;28;20478;-52
2021/08/30 07:12:49;;;;;;;0.30;0.20;;;;;;;17.91;100.00;100297.63;4969953;28;20501;-52
2021/08/30 07:15:16;;;;;;;0.30;0.20;;;;;;;18.10;100.00;100297.41;4975793;28;20451;-52
2021/08/30 07:17:43;;;;;;;0.90;0.90;;;;;;;18.10;100.00;100294.72;4975891;28;20488;-52
2021/08/30 07:20:10;;;;;;;0.40;0.30;;;;;;;18.15;100.00;100302.53;4975586;28;20882;-52
2021/08/30 07:22:37;;;;;;;1.57;1.43;;;;;;;18.10;100.00;100307.31;4976098;28;20532;-51
2021/08/30 07:25:05;;;;;;;6.00;1.50;;;;;;;18.05;100.00;100304.88;4975718;28;20509;-50
2021/08/30 07:27:32;;;;;;;0.40;0.20;;;;;;;18.00;100.00;100307.84;4975665;28;20617;-50
2021/08/30 07:29:59;;;;;;;0.30;0.20;;;;;;;18.04;100.00;100309.41;4975443;28;20478;-50
2021/08/30 07:32:26;;;;;;;0.87;0.87;;;;;;;17.97;100.00;100308.03;4975607;28;20440;-51
2021/08/30 07:34:52;;;;;;;0.93;0.93;;;;;;;17.98;100.00;100306.22;4975461;28;21018;-50
2021/08/30 07:37:19;;;;;;;0.40;0.40;;;;;;;17.89;100.00;100314.81;4975557;28;20420;-50
2021/08/30 07:39:46;;;;;;;0.40;0.20;;;;;;;17.87;100.00;100314.03;4975307;28;20478;-50
2021/08/30 07:42:13;;;;;;;0.40;0.20;;;;;;;17.95;100.00;100314.44;4975330;28;20480;-50
2021/08/30 07:44:40;;;;;;;0.40;0.40;;;;;;;18.04;100.00;100306.72;4975245;28;21005;-49
2021/08/30 07:47:07;;;;;;;0.40;0.40;;;;;;;18.22;100.00;100312.81;4975216;28;20568;-50
2021/08/30 07:49:34;;;;;;;0.40;0.20;;;;;;;18.30;100.00;100313.22;4975328;28;20455;-50
2021/08/30 07:52:01;;;;;;;0.40;0.23;;;;;;;18.43;100.00;100310.66;4975369;28;20538;-50
2021/08/30 07:54:28;;;;;;;0.40;0.20;;;;;;;18.64;100.00;100320.16;4971556;28;20965;-50
2021/08/30 07:56:55;;;;;;;0.40;0.20;;;;;;;18.59;100.00;100322.22;4965918;28;20936;-51
2021/08/30 07:59:22;;;;;;;0.40;0.20;;;;;;;18.61;100.00;100324.81;4974953;28;20540;-50
2021/08/30 08:01:49;;;;;;;0.40;0.30;;;;;;;18.78;100.00;100329.22;4974877;28;20513;-50
2021/08/30 08:04:16;;;;;;;0.40;0.20;;;;;;;18.91;100.00;100330.16;4974830;28;20464;-50
2021/08/30 08:06:43;;;;;;;0.40;0.30;;;;;;;18.69;100.00;100335.16;4974874;28;20534;-50
2021/08/30 08:09:10;;;;;;;1.03;0.83;;;;;;;18.77;100.00;100340.94;4973697;28;20446;-50
2021/08/30 08:11:37;;;;;;;0.40;0.20;;;;;;;18.84;100.00;100335.09;4970685;28;21000;-51
2021/08/30 08:14:04;;;;;;;0.40;0.30;;;;;;;18.95;100.00;100345.19;4972847;28;20946;-50
2021/08/30 08:16:31;;;;;;;0.40;0.33;;;;;;;19.00;100.00;100347.59;4974949;28;20497;-50
2021/08/30 08:18:58;;;;;;;0.77;0.77;;;;;;;18.90;100.00;100347.28;4974493;28;20429;-50
2021/08/30 08:21:25;;;;;;;0.40;0.30;;;;;;;18.82;100.00;100350.47;4974478;28;20534;-50
2021/08/30 08:23:53;;;;;;;0.40;0.20;;;;;;;18.60;100.00;100356.25;4974549;28;20531;-51
2021/08/30 08:26:20;;;;;;;0.40;0.30;;;;;;;18.89;100.00;100348.25;4974993;28;20504;-50
2021/08/30 08:28:47;;;;;;;0.70;0.70;;;;;;;18.87;100.00;100347.50;4974369;28;20772;-50
2021/08/30 08:31:14;;;;;;;0.40;0.40;;;;;;;19.11;100.00;100345.09;4974482;28;20444;-50
2021/08/30 08:33:41;;;;;;;1.13;1.03;;;;;;;19.11;100.00;100347.78;4961420;28;20956;-50
2021/08/30 08:36:08;;;;;;;0.60;0.60;;;;;;;19.08;100.00;100353.38;4974450;28;20480;-50
2021/08/30 08:38:35;;;;;;;0.40;0.20;;;;;;;19.00;100.00;100352.97;4974222;28;20478;-50
2021/08/30 08:41:02;;;;;;;0.40;0.20;;;;;;;19.10;100.00;100349.63;4974264;28;20470;-50
2021/08/30 08:43:30;;;;;;;1.57;1.47;;;;;;;19.05;100.00;100353.56;4973822;28;20488;-50
2021/08/30 08:45:56;;;;;;;0.40;0.20;;;;;;;18.92;100.00;100348.94;4974221;28;20460;-50
2021/08/30 08:48:24;;;;;;;0.50;0.50;;;;;;;19.03;100.00;100356.34;4974066;28;20980;-51
2021/08/30 08:50:51;;;;;;;0.40;0.30;;;;;;;18.96;100.00;100356.84;4974224;28;20433;-53
2021/08/30 08:53:18;;;;;;;0.40;0.30;;;;;;;18.94;100.00;100352.41;4974082;28;20462;-49
2021/08/30 08:55:46;;;;;;;1.60;0.67;;;;;;;19.08;99.84;100348.84;4960985;28;20507;-50
2021/08/30 08:58:15;;;;;;;0.40;0.23;;;;;;;19.06;100.00;100355.31;4974123;28;21002;-51
2021/08/30 09:00:44;;;;;;;0.93;0.93;;;;;;;19.06;100.00;100355.31;4973850;28;20940;-51
2021/08/30 09:03:20;;;;;;;3.23;0.77;;;;;;;19.22;99.96;100348.00;4973847;28;20981;-50
2021/08/30 09:06:00;;;;;;;1.23;0.67;;;;;;;19.22;100.00;100358.78;4973877;28;20420;-50
2021/08/30 09:08:42;;;;;;;0.40;0.30;;;;;;;19.30;99.85;100351.03;4974133;28;20526;-50
2021/08/30 09:11:21;;;;;;;4.23;4.07;;;;;;;19.42;99.57;100360.19;4973481;28;20479;-50
2021/08/30 09:13:54;;;;;;;0.40;0.27;;;;;;;19.46;98.27;100356.31;4969812;28;20454;-50
2021/08/30 09:16:24;;;;;;;1.37;1.37;;;;;;;19.38;98.45;100361.34;4973882;28;20469;-52
2021/08/30 09:19:06;;;;;;;0.40;0.30;;;;;;;19.43;98.72;100357.38;4973867;28;20424;-51
2021/08/30 09:21:33;;;;;;;0.40;0.30;;;;;;;19.43;99.25;100359.22;4973832;28;20486;-50
2021/08/30 09:24:21;;;;;;;0.40;0.20;;;;;;;19.52;97.41;100359.50;4972476;28;20432;-50
2021/08/30 09:26:51;;;;;;;0.97;0.97;;;;;;;19.70;97.23;100356.59;4973460;28;20508;-50
2021/08/30 09:29:28;;;;;;;0.40;0.20;;;;;;;19.52;97.67;100361.34;4973816;28;20446;-51
2021/08/30 09:32:13;;;;;;;0.40;0.20;;;;;;;19.61;98.57;100357.22;4973972;28;20581;-51
2021/08/30 09:34:43;;;;;;;0.40;0.30;;;;;;;19.70;97.08;100353.91;4973705;28;20840;-51
2021/08/30 09:37:25;;;;;;;0.40;0.30;;;;;;;19.88;96.70;100358.09;4973567;28;20462;-50
2021/08/30 09:39:56;;;;;;;0.97;0.97;;;;;;;20.05;96.55;100357.84;4973465;28;20509;-51
2021/08/30 09:42:24;;;;;;;0.50;0.50;;;;;;;20.01;95.92;100348.22;4963219;28;20474;-51
2021/08/30 09:44:52;;;;;;;0.70;0.60;;;;;;;20.07;96.11;100352.34;4971687;28;20425;-51
2021/08/30 09:47:22;;;;;;;0.50;0.40;;;;;;;19.92;97.77;100354.22;4973374;28;20468;-52
2021/08/30 09:49:51;;;;;;;0.40;0.30;;;;;;;20.01;95.07;100347.34;4973583;28;20480;-50
2021/08/30 09:52:20;;;;;;;1.53;1.43;;;;;;;20.07;95.26;100339.72;4973351;28;20521;-50
2021/08/30 09:54:47;;;;;;;0.40;0.30;;;;;;;20.14;94.72;100348.25;4941995;28;20430;-50
2021/08/30 09:57:15;;;;;;;0.40;0.30;;;;;;;20.32;93.48;100338.06;4966717;28;20425;-51
2021/08/30 09:59:46;;;;;;;4.23;4.03;;;;;;;20.06;94.32;100346.06;4947733;28;20458;-50
2021/08/30 10:02:15;;;;;;;0.40;0.20;;;;;;;20.26;90.78;100338.47;4972923;28;20482;-49
2021/08/30 10:04:43;;;;;;;0.40;0.20;;;;;;;20.22;91.98;100339.66;4973143;28;20450;-50
2021/08/30 10:07:14;;;;;;;0.40;0.20;;;;;;;20.40;92.79;100339.25;4973237;28;20504;-50
2021/08/30 10:09:42;;;;;;;0.40;0.20;;;;;;;20.74;92.03;100345.06;4973125;28;20429;-50
2021/08/30 10:12:08;;;;;;;5.03;0.90;;;;;;;20.93;89.31;100334.69;4966595;28;20449;-50
2021/08/30 10:14:36;;;;;;;0.40;0.30;;;;;;;21.13;88.98;100340.53;4972947;28;20486;-51
2021/08/30 10:17:06;;;;;;;0.50;0.50;;;;;;;21.37;86.68;100332.50;4973090;28;20449;-50
2021/08/30 10:19:40;;;;;;;0.97;0.60;;;;;;;21.62;87.74;100324.31;4972958;28;20802;-51
2021/08/30 10:22:19;;;;;;;0.40;0.23;;;;;;;21.67;83.77;100340.22;4972931;28;20468;-51
2021/08/30 10:24:48;;;;;;;0.40;0.20;;;;;;;21.82;84.49;100328.25;4973168;28;20421;-50
2021/08/30 10:27:28;;;;;;;5.00;0.80;;;;;;;21.80;83.88;100327.50;4972835;28;20941;-50
2021/08/30 10:30:11;;;;;;;0.40;0.20;;;;;;;21.67;83.89;100329.41;4972871;28;20500;-51
2021/08/30 10:32:41;;;;;;;0.80;0.80;;;;;;;21.35;86.68;100335.31;4972878;28;20444;-50
2021/08/30 10:35:19;;;;;;;0.40;0.20;;;;;;;21.17;87.38;100337.47;4972831;28;20447;-50
2021/08/30 10:37:58;;;;;;;0.40;0.30;;;;;;;20.70;89.75;100341.72;4972825;28;20453;-51
2021/08/30 10:40:29;;;;;;;0.50;0.40;;;;;;;20.79;90.19;100342.03;4972719;28;20532;-51
2021/08/30 10:42:59;;;;;;;0.60;0.60;;;;;;;20.35;91.22;100344.09;4968585;28;20533;-50
2021/08/30 10:45:32;;;;;;;0.50;0.50;;;;;;;20.33;91.98;100350.59;4957321;28;20923;-50
2021/08/30 10:48:03;;;;;;;0.40;0.20;;;;;;;20.41;90.77;100349.09;4972854;28;20468;-50
2021/08/30 10:50:31;;;;;;;0.40;0.20;;;;;;;20.51;92.80;100351.19;4976317;28;20953;-50
2021/08/30 10:53:07;;;;;;;2.53;0.67;;;;;;;20.68;91.49;100356.28;4976136;28;20585;-50
2021/08/30 10:55:37;;;;;;;1.17;0.83;;;;;;;20.72;91.60;100357.81;4964025;28;20457;-50
2021/08/30 10:58:13;;;;;;;0.40;0.40;;;;;;;20.74;91.81;100352.31;4950310;28;20910;-50
2021/08/30 11:00:40;;;;;;;0.40;0.20;;;;;;;20.65;89.72;100353.81;4975844;28;20879;-53
2021/08/30 11:03:08;;;;;;;0.40;0.30;;;;;;;20.39;91.16;100356.41;4976158;28;20967;-50
2021/08/30 11:05:36;;;;;;;0.40;0.20;;;;;;;20.41;91.37;100354.50;4976158;28;20454;-51
2021/08/30 11:08:03;;;;;;;0.40;0.30;;;;;;;20.38;91.13;100362.78;4976024;28;20519;-50
2021/08/30 11:10:32;;;;;;;0.57;0.57;;;;;;;20.20;92.82;100358.66;4963032;28;20454;-51
2021/08/30 11:12:59;;;;;;;2.27;0.80;;;;;;;20.41;92.20;100361.72;4984245;28;20445;-51
2021/08/30 11:15:31;;;;;;;0.40;0.30;;;;;;;20.32;92.60;100359.66;4976431;28;20475;-50
2021/08/30 11:17:59;;;;;;;0.40;0.30;;;;;;;20.54;92.64;100351.84;4976424;28;20838;-50
2021/08/30 11:20:27;;;;;;;0.90;0.67;;;;;;;20.74;90.50;100358.56;4974956;28;20433;-50
2021/08/30 11:22:55;;;;;;;0.40;0.20;;;;;;;20.98;91.28;100351.47;4975930;28;20524;-49
2021/08/30 11:25:22;;;;;;;0.50;0.40;;;;;;;21.40;89.76;100360.19;4974569;28;20428;-51
2021/08/30 11:27:49;;;;;;;0.40;0.30;;;;;;;21.51;87.82;100362.97;4976240;28;20498;-50
2021/08/30 11:30:19;;;;;;;0.40;0.30;;;;;;;21.49;86.80;100361.34;4974530;28;20433;-51